Time;durP1;ratioP1;P1;durP2;ratioP2;P2;SDS_P1;SDS_P2;PMS_P1;PMS_P2;Temp;Humidity;BMP_temperature;BMP_pressure;BME280_temperature;BME280_humidity;BME280_pressure;Samples;Min_cycle;Max_cycle;Signal;HPM_P1;HPM_P2
2023/01/13 00:00:17;;;;;;;;;;;205.50;2252.80;;;;;;5054914;28;20293;-86
2023/01/13 00:02:43;;;;;;;;;;;205.50;2252.80;;;;;;5054883;28;19948;-87
2023/01/13 00:05:09;;;;;;;;;;;205.50;2252.80;;;;;;5037595;28;20355;-86
2023/01/13 00:07:35;;;;;;;;;;;205.50;2252.80;;;;;;5037665;28;19927;-86
2023/01/13 00:10:00;;;;;;;;;;;205.50;2252.80;;;;;;5036511;28;19916;-85
2023/01/13 00:12:26;;;;;;;;;;;205.50;2252.80;;;;;;5037160;28;19908;-86
2023/01/13 00:14:51;;;;;;;;;;;205.60;2252.80;;;;;;5054710;28;19905;-85
2023/01/13 00:17:17;;;;;;;;;;;205.60;2252.80;;;;;;5036767;28;20402;-86
2023/01/13 00:19:43;;;;;;;;;;;205.60;2252.80;;;;;;5036817;28;19920;-86
2023/01/13 00:22:09;;;;;;;;;;;205.60;2252.80;;;;;;5037018;28;19905;-86
2023/01/13 00:24:34;;;;;;;;;;;205.70;2252.80;;;;;;5036829;28;20382;-86
2023/01/13 00:27:00;;;;;;;;;;;205.50;2252.80;;;;;;5054922;28;19958;-82
2023/01/13 00:29:25;;;;;;;;;;;205.50;2252.80;;;;;;5055461;28;19911;-86
2023/01/13 00:31:51;;;;;;;;;;;205.50;2252.80;;;;;;5054836;28;20350;-84
2023/01/13 00:34:17;;;;;;;;;;;205.50;2252.80;;;;;;5037434;28;19967;-87
2023/01/13 00:36:42;;;;;;;;;;;205.50;2252.80;;;;;;5036942;28;19908;-84
2023/01/13 00:39:08;;;;;;;;;;;205.40;2252.80;;;;;;5036782;28;19982;-87
2023/01/13 00:43:21;;;;;;;;;;;205.50;2252.80;;;;;;5036327;28;20370;-86
2023/01/13 00:44:19;;;;;;;;;;;205.50;2252.80;;;;;;5054554;28;19905;-87
2023/01/13 00:46:45;;;;;;;;;;;205.40;2252.80;;;;;;5036581;28;19912;-86
2023/01/13 00:49:10;;;;;;;;;;;205.40;2252.80;;;;;;5053854;28;19932;-86
2023/01/13 00:51:36;;;;;;;;;;;205.40;2252.80;;;;;;5036199;28;19905;-86
2023/01/13 00:54:01;;;;;;;;;;;205.40;2252.80;;;;;;5032858;28;19947;-86
2023/01/13 00:56:27;;;;;;;;;;;205.50;2252.80;;;;;;5044107;28;19912;-87
2023/01/13 00:58:52;;;;;;;;;;;205.50;2252.80;;;;;;5053894;28;19913;-86
2023/01/13 01:01:19;;;;;;;;;;;205.60;2252.80;;;;;;5053715;28;20449;-86
2023/01/13 01:03:48;;;;;;;;;;;205.60;2252.80;;;;;;5053744;28;19927;-86
2023/01/13 01:06:15;;;;;;;;;;;205.60;2252.80;;;;;;5035828;28;19905;-86
2023/01/13 01:08:41;;;;;;;;;;;205.60;2252.80;;;;;;5027816;28;19917;-84
2023/01/13 01:11:08;;;;;;;;;;;205.50;2252.80;;;;;;5034887;28;19909;-86
2023/01/13 01:13:34;;;;;;;;;;;205.40;2252.80;;;;;;5041967;28;19909;-86
2023/01/13 01:16:02;;;;;;;;;;;205.20;2252.80;;;;;;5053484;28;19909;-85
2023/01/13 01:18:27;;;;;;;;;;;205.10;2252.80;;;;;;5035945;28;20516;-86
2023/01/13 01:20:53;;;;;;;;;;;205.10;2252.80;;;;;;5035332;28;20013;-86
2023/01/13 01:23:18;;;;;;;;;;;205.00;2252.80;;;;;;5035369;28;20003;-86
2023/01/13 01:25:44;;;;;;;;;;;205.10;2252.80;;;;;;5035570;28;19912;-86
2023/01/13 01:28:10;;;;;;;;;;;205.20;2252.80;;;;;;5035326;28;20023;-86
2023/01/13 01:30:37;;;;;;;;;;;205.20;2252.80;;;;;;5034434;28;19912;-86
2023/01/13 01:33:04;;;;;;;;;;;205.20;2252.80;;;;;;5054285;28;19905;-85
2023/01/13 01:35:29;;;;;;;;;;;205.20;2252.80;;;;;;5038257;28;19912;-85
2023/01/13 01:37:55;;;;;;;;;;;204.90;2252.80;;;;;;5058539;28;19909;-86
2023/01/13 01:40:20;;;;;;;;;;;205.10;2252.80;;;;;;5058027;28;19927;-84
2023/01/13 01:45:30;;;;;;;;;;;204.90;2252.80;;;;;;5058623;28;19966;-85
2023/01/13 01:47:58;;;;;;;;;;;180.10;2252.80;;;;;;5040300;28;19909;-86
2023/01/13 01:50:24;;;;;;;;;;;180.10;2252.80;;;;;;5037769;28;19916;-86
2023/01/13 01:52:53;;;;;;;;;;;204.80;2252.80;;;;;;5058372;28;20015;-86
2023/01/13 01:55:20;;;;;;;;;;;204.90;2252.80;;;;;;5041391;28;19905;-86
2023/01/13 01:57:48;;;;;;;;;;;205.00;2252.80;;;;;;5057035;28;19916;-86
2023/01/13 02:00:14;;;;;;;;;;;205.00;2252.80;;;;;;5057088;28;19950;-87
2023/01/13 02:02:42;;;;;;;;;;;205.10;2252.80;;;;;;5039321;28;19999;-86
2023/01/13 02:05:08;;;;;;;;;;;205.10;2252.80;;;;;;5039330;28;19927;-85
2023/01/13 02:07:34;;;;;;;;;;;205.10;2252.80;;;;;;5056113;28;20421;-85
2023/01/13 02:10:02;;;;;;;;;;;205.20;2252.80;;;;;;5056602;28;19932;-86
2023/01/13 02:12:28;;;;;;;;;;;205.20;2252.80;;;;;;5036634;28;20381;-83
2023/01/13 02:15:08;;;;;;;;;;;205.30;2252.80;;;;;;5037183;28;19905;-86
2023/01/13 02:17:43;;;;;;;;;;;205.30;2252.80;;;;;;5038555;28;19958;-86
2023/01/13 02:20:24;;;;;;;;;;;205.20;2252.80;;;;;;5056917;28;19905;-85
2023/01/13 02:24:52;;;;;;;;;;;205.10;2252.80;;;;;;5038919;28;19904;-85
2023/01/13 02:25:54;;;;;;;;;;;205.00;2252.80;;;;;;5055500;28;19912;-86
2023/01/13 02:31:41;;;;;;;;;;;205.00;2252.80;;;;;;4980393;28;20442;-85
2023/01/13 02:34:10;;;;;;;;;;;205.20;2252.80;;;;;;4959974;28;19966;-90
2023/01/13 02:36:45;;;;;;;;;;;205.20;2252.80;;;;;;4960311;28;19907;-86
2023/01/13 02:39:18;;;;;;;;;;;205.30;2252.80;;;;;;4976194;28;19924;-86
2023/01/13 02:44:39;;;;;;;;;;;205.40;2252.80;;;;;;4976014;28;19913;-85
2023/01/13 02:47:12;;;;;;;;;;;205.40;2252.80;;;;;;4974532;28;19929;-84
2023/01/13 02:49:43;;;;;;;;;;;205.40;2252.80;;;;;;4978393;28;19989;-84
2023/01/13 02:52:22;;;;;;;;;;;205.40;2252.80;;;;;;4961014;28;19906;-85
2023/01/13 02:55:09;;;;;;;;;;;205.40;2252.80;;;;;;4960298;28;19913;-85
2023/01/13 02:57:36;;;;;;;;;;;205.30;2252.80;;;;;;4952417;28;19925;-85
2023/01/13 03:00:03;;;;;;;;;;;205.30;2252.80;;;;;;4960327;28;19906;-84
2023/01/13 03:02:29;;;;;;;;;;;205.30;2252.80;;;;;;4971670;28;19906;-80
2023/01/13 03:04:56;;;;;;;;;;;205.40;2252.80;;;;;;4973062;28;19910;-79
2023/01/13 03:07:40;;;;;;;;;;;205.30;2252.80;;;;;;5002502;28;20279;-79
2023/01/13 03:10:10;;;;;;;;;;;205.40;2252.80;;;;;;5038652;28;19909;-85
2023/01/13 03:12:35;;;;;;;;;;;205.30;2252.80;;;;;;5055636;28;19915;-84
2023/01/13 03:15:01;;;;;;;;;;;205.10;2252.80;;;;;;5038448;28;19987;-79
2023/01/13 03:17:30;;;;;;;;;;;205.10;2252.80;;;;;;5038481;28;19905;-85
2023/01/13 03:20:05;;;;;;;;;;;205.20;2252.80;;;;;;5038285;28;19923;-79
2023/01/13 03:22:39;;;;;;;;;;;205.20;2252.80;;;;;;5038407;28;19905;-85
2023/01/13 03:25:05;;;;;;;;;;;205.20;2252.80;;;;;;5037957;28;19974;-80
2023/01/13 03:27:32;;;;;;;;;;;205.00;2252.80;;;;;;5055927;28;20321;-83
2023/01/13 03:30:00;;;;;;;;;;;204.80;2252.80;;;;;;5037751;28;20362;-79
2023/01/13 03:32:25;;;;;;;;;;;204.80;2252.80;;;;;;5038101;28;19905;-82
2023/01/13 03:34:57;;;;;;;;;;;204.90;2252.80;;;;;;5055846;28;20259;-80
2023/01/13 03:37:26;;;;;;;;;;;204.80;2252.80;;;;;;5038301;28;19928;-85
2023/01/13 03:40:14;;;;;;;;;;;204.80;2252.80;;;;;;5037344;28;19921;-79
2023/01/13 03:44:20;;;;;;;;;;;204.80;2252.80;;;;;;5037877;28;19909;-83
2023/01/13 03:45:29;;;;;;;;;;;204.90;2252.80;;;;;;5046088;28;19930;-79
2023/01/13 03:47:58;;;;;;;;;;;204.90;2252.80;;;;;;5055473;28;19909;-79
2023/01/13 03:50:28;;;;;;;;;;;180.10;2252.80;;;;;;5055480;28;19905;-84
2023/01/13 03:52:59;;;;;;;;;;;180.10;2252.80;;;;;;5052121;28;19905;-79
2023/01/13 03:55:28;;;;;;;;;;;180.00;2252.80;;;;;;5040141;28;19980;-81
2023/01/13 03:57:56;;;;;;;;;;;180.00;2252.80;;;;;;5036236;28;19916;-79
2023/01/13 04:00:25;;;;;;;;;;;179.90;2252.80;;;;;;5037631;28;19936;-79
2023/01/13 04:02:53;;;;;;;;;;;179.90;2252.80;;;;;;5037376;28;19975;-79
2023/01/13 04:05:19;;;;;;;;;;;179.90;2252.80;;;;;;5055026;28;19927;-79
2023/01/13 04:07:48;;;;;;;;;;;179.90;2252.80;;;;;;5037899;28;20406;-84
2023/01/13 04:10:17;;;;;;;;;;;180.00;2252.80;;;;;;5037483;28;19909;-79
2023/01/13 04:13:01;;;;;;;;;;;179.90;2252.80;;;;;;5055116;28;19908;-79
2023/01/13 04:15:31;;;;;;;;;;;180.00;2252.80;;;;;;5037205;28;19966;-84
2023/01/13 04:18:10;;;;;;;;;;;179.90;2252.80;;;;;;5050088;28;19948;-85
2023/01/13 04:20:36;;;;;;;;;;;180.10;2252.80;;;;;;5036802;28;20385;-79
2023/01/13 04:23:02;;;;;;;;;;;180.00;2252.80;;;;;;5037469;28;19908;-79
2023/01/13 04:25:28;;;;;;;;;;;180.10;2252.80;;;;;;5037019;28;19909;-85
2023/01/13 04:27:53;;;;;;;;;;;180.00;2252.80;;;;;;5037001;28;19905;-79
2023/01/13 04:30:19;;;;;;;;;;;180.10;2252.80;;;;;;5036716;28;19905;-78
2023/01/13 04:32:44;;;;;;;;;;;180.10;2252.80;;;;;;5054744;28;19911;-79
2023/01/13 04:35:10;;;;;;;;;;;204.80;2252.80;;;;;;5036902;28;20073;-86
2023/01/13 04:37:36;;;;;;;;;;;180.10;2252.80;;;;;;5036694;28;20279;-83
2023/01/13 04:40:02;;;;;;;;;;;204.90;2252.80;;;;;;5036592;28;19955;-85
2023/01/13 04:42:27;;;;;;;;;;;205.00;2252.80;;;;;;5035941;28;20071;-84
2023/01/13 04:44:53;;;;;;;;;;;205.10;2252.80;;;;;;5036660;28;19904;-80
2023/01/13 04:47:18;;;;;;;;;;;205.00;2252.80;;;;;;5035939;28;19944;-79
2023/01/13 04:49:44;;;;;;;;;;;205.10;2252.80;;;;;;5036141;28;19905;-85
2023/01/13 04:52:09;;;;;;;;;;;205.10;2252.80;;;;;;5036403;28;19995;-85
2023/01/13 04:54:35;;;;;;;;;;;205.00;2252.80;;;;;;5036776;28;19904;-79
2023/01/13 04:57:01;;;;;;;;;;;205.00;2252.80;;;;;;5033316;28;20365;-84
2023/01/13 04:59:26;;;;;;;;;;;205.10;2252.80;;;;;;5034958;28;19919;-85
2023/01/13 05:01:52;;;;;;;;;;;205.10;2252.80;;;;;;5036298;28;19905;-79
2023/01/13 05:04:17;;;;;;;;;;;205.20;2252.80;;;;;;5053850;28;19904;-79
2023/01/13 05:06:43;;;;;;;;;;;205.20;2252.80;;;;;;5036415;28;19952;-83
2023/01/13 05:09:10;;;;;;;;;;;205.20;2252.80;;;;;;5035541;28;20404;-85
2023/01/13 05:17:04;;;;;;;;;;;205.20;2252.80;;;;;;5054199;28;19911;-82
2023/01/13 05:19:31;;;;;;;;;;;205.20;2252.80;;;;;;5053693;28;19913;-84
2023/01/13 05:27:35;;;;;;;;;;;205.10;2252.80;;;;;;4973484;28;20027;-79
2023/01/13 05:30:01;;;;;;;;;;;204.90;2252.80;;;;;;4960458;28;19923;-81
2023/01/13 05:32:27;;;;;;;;;;;204.80;2252.80;;;;;;4973569;28;19910;-84
2023/01/13 05:34:54;;;;;;;;;;;204.90;2252.80;;;;;;4972906;28;20426;-80
2023/01/13 05:37:20;;;;;;;;;;;204.80;2252.80;;;;;;4963704;28;20384;-84
2023/01/13 05:45:13;;;;;;;;;;;204.90;2252.80;;;;;;4962655;28;19944;-83
2023/01/13 05:47:39;;;;;;;;;;;180.10;2252.80;;;;;;4972914;28;19998;-79
2023/01/13 05:50:05;;;;;;;;;;;180.10;2252.80;;;;;;4965260;28;19913;-85
2023/01/13 05:52:31;;;;;;;;;;;180.10;2252.80;;;;;;4954316;28;19956;-85
2023/01/13 05:54:56;;;;;;;;;;;204.80;2252.80;;;;;;4961551;28;20014;-85
2023/01/13 05:57:22;;;;;;;;;;;180.10;2252.80;;;;;;4972755;28;19918;-79
2023/01/13 05:59:47;;;;;;;;;;;204.80;2252.80;;;;;;4960374;28;19914;-80
2023/01/13 06:02:13;;;;;;;;;;;204.90;2252.80;;;;;;5030435;28;19909;-84
2023/01/13 06:04:38;;;;;;;;;;;204.90;2252.80;;;;;;5035870;28;19948;-85
2023/01/13 06:07:04;;;;;;;;;;;180.10;2252.80;;;;;;5053625;28;19905;-84
2023/01/13 06:09:29;;;;;;;;;;;180.10;2252.80;;;;;;5035720;28;19905;-79
2023/01/13 06:11:55;;;;;;;;;;;180.10;2252.80;;;;;;5034954;28;19917;-79
2023/01/13 06:14:21;;;;;;;;;;;180.10;2252.80;;;;;;5035121;28;19943;-79
2023/01/13 06:16:46;;;;;;;;;;;180.00;2252.80;;;;;;5034206;28;20389;-79
2023/01/13 06:19:12;;;;;;;;;;;179.90;2252.80;;;;;;5035332;28;20377;-79
2023/01/13 06:21:38;;;;;;;;;;;179.80;2252.80;;;;;;5038284;28;19999;-79
2023/01/13 06:24:04;;;;;;;;;;;179.90;2252.80;;;;;;5039313;28;20362;-80
2023/01/13 06:26:32;;;;;;;;;;;179.90;2252.80;;;;;;5039192;28;19905;-86
2023/01/13 06:28:57;;;;;;;;;;;179.90;2252.80;;;;;;5039333;28;19905;-80
2023/01/13 06:31:23;;;;;;;;;;;180.00;2252.80;;;;;;5054687;28;20374;-80
2023/01/13 06:33:52;;;;;;;;;;;180.00;2252.80;;;;;;5038399;28;19905;-81
2023/01/13 06:36:21;;;;;;;;;;;179.90;2252.80;;;;;;5038233;28;19960;-79
2023/01/13 06:38:48;;;;;;;;;;;180.00;2252.80;;;;;;5037609;28;19912;-79
2023/01/13 06:41:13;;;;;;;;;;;180.00;2252.80;;;;;;5037389;28;19967;-79
2023/01/13 06:43:39;;;;;;;;;;;180.00;2252.80;;;;;;5037074;28;19932;-79
2023/01/13 06:46:05;;;;;;;;;;;180.10;2252.80;;;;;;5038110;28;19904;-83
2023/01/13 06:48:31;;;;;;;;;;;204.80;2252.80;;;;;;5056117;28;19913;-83
2023/01/13 06:50:57;;;;;;;;;;;204.90;2252.80;;;;;;5034368;28;19905;-80
2023/01/13 06:53:23;;;;;;;;;;;204.90;2252.80;;;;;;5055320;28;19912;-79
2023/01/13 06:55:48;;;;;;;;;;;205.00;2252.80;;;;;;5055693;28;19904;-87
2023/01/13 06:58:14;;;;;;;;;;;205.00;2252.80;;;;;;5037628;28;20260;-79
2023/01/13 07:00:40;;;;;;;;;;;205.10;2252.80;;;;;;5038001;28;19909;-78
2023/01/13 07:03:09;;;;;;;;;;;205.10;2252.80;;;;;;5037701;28;19976;-80
2023/01/13 07:05:34;;;;;;;;;;;205.10;2252.80;;;;;;5037540;28;19958;-80
2023/01/13 07:08:00;;;;;;;;;;;204.90;2252.80;;;;;;5037771;28;19905;-82
2023/01/13 07:10:25;;;;;;;;;;;204.80;2252.80;;;;;;5037061;28;19909;-80
2023/01/13 07:15:35;;;;;;;;;;;180.00;2252.80;;;;;;5055872;28;20271;-83
2023/01/13 07:18:01;;;;;;;;;;;179.90;2252.80;;;;;;5037052;28;19916;-83
2023/01/13 07:20:27;;;;;;;;;;;179.90;2252.80;;;;;;5037605;28;19955;-81
2023/01/13 07:22:53;;;;;;;;;;;179.90;2252.80;;;;;;5055650;28;19908;-80
2023/01/13 07:25:19;;;;;;;;;;;179.80;2252.80;;;;;;5035509;28;19926;-80
2023/01/13 07:27:44;;;;;;;;;;;179.70;2252.80;;;;;;5055339;28;19908;-78
2023/01/13 07:30:10;;;;;;;;;;;179.80;2252.80;;;;;;5036874;28;19915;-78
2023/01/13 07:32:36;;;;;;;;;;;179.80;2252.80;;;;;;5054250;28;19912;-79
2023/01/13 07:35:04;;;;;;;;;;;179.90;2252.80;;;;;;5054678;28;19915;-81
2023/01/13 07:37:30;;;;;;;;;;;180.00;2252.80;;;;;;5054956;28;20000;-79
2023/01/13 07:39:56;;;;;;;;;;;179.80;2252.80;;;;;;5033723;28;19917;-78
2023/01/13 07:45:06;;;;;;;;;;;180.00;2252.80;;;;;;5053482;28;19999;-78
2023/01/13 07:47:32;;;;;;;;;;;205.30;2252.80;;;;;;5037211;28;19966;-88
2023/01/13 07:49:57;;;;;;;;;;;204.80;2252.80;;;;;;5037403;28;20416;-80
2023/01/13 07:52:23;;;;;;;;;;;204.80;2252.80;;;;;;5036941;28;19962;-81
2023/01/13 07:54:49;;;;;;;;;;;204.80;2252.80;;;;;;5054252;28;19905;-80
2023/01/13 07:57:14;;;;;;;;;;;204.80;2252.80;;;;;;5054358;28;20018;-78
2023/01/13 07:59:40;;;;;;;;;;;204.80;2252.80;;;;;;5036319;28;20007;-78
2023/01/13 08:02:09;;;;;;;;;;;204.90;2252.80;;;;;;5036728;28;19928;-79
2023/01/13 08:04:34;;;;;;;;;;;205.00;2252.80;;;;;;5037055;28;20338;-78
2023/01/13 08:07:00;;;;;;;;;;;205.00;2252.80;;;;;;5054571;28;19966;-78
2023/01/13 08:09:25;;;;;;;;;;;204.90;2252.80;;;;;;5036519;28;20378;-79
2023/01/13 08:13:16;;;;;;;;;;;204.90;2252.80;;;;;;5053918;28;19913;-78
2023/01/13 08:14:38;;;;;;;;;;;205.10;2252.80;;;;;;5054216;28;19905;-79
2023/01/13 08:17:04;;;;;;;;;;;205.00;2252.80;;;;;;5054756;28;20034;-82
2023/01/13 08:19:29;;;;;;;;;;;205.00;2252.80;;;;;;5054117;28;19919;-81
2023/01/13 08:21:55;;;;;;;;;;;205.10;2252.80;;;;;;5054006;28;19905;-80
2023/01/13 08:24:21;;;;;;;;;;;205.10;2252.80;;;;;;5036241;28;20308;-80
2023/01/13 08:26:46;;;;;;;;;;;205.00;2252.80;;;;;;5035966;28;20286;-80
2023/01/13 08:29:12;;;;;;;;;;;204.90;2252.80;;;;;;5036748;28;19926;-80
2023/01/13 08:31:37;;;;;;;;;;;204.90;2252.80;;;;;;5053840;28;19949;-80
2023/01/13 08:34:03;;;;;;;;;;;204.90;2252.80;;;;;;5036633;28;19905;-80
2023/01/13 08:36:28;;;;;;;;;;;205.00;2252.80;;;;;;5036262;28;20354;-79
2023/01/13 08:38:54;;;;;;;;;;;205.00;2252.80;;;;;;5053692;28;19943;-83
2023/01/13 08:41:53;;;;;;;;;;;205.00;2252.80;;;;;;5036510;28;19908;-78
2023/01/13 08:44:07;;;;;;;;;;;204.90;2252.80;;;;;;5053054;28;19912;-81
2023/01/13 08:46:33;;;;;;;;;;;205.00;2252.80;;;;;;5036447;28;19905;-77
2023/01/13 08:48:59;;;;;;;;;;;205.10;2252.80;;;;;;5031882;28;19912;-79
2023/01/13 08:51:25;;;;;;;;;;;205.20;2252.80;;;;;;5045312;28;19904;-85
2023/01/13 08:53:51;;;;;;;;;;;205.30;2252.80;;;;;;5054227;28;19928;-90
2023/01/13 08:56:17;;;;;;;;;;;205.40;2252.80;;;;;;5054391;28;19909;-90
2023/01/13 08:58:42;;;;;;;;;;;205.50;2252.80;;;;;;5036791;28;19922;-84
2023/01/13 09:01:10;;;;;;;;;;;205.40;2252.80;;;;;;5036226;28;19905;-88
2023/01/13 09:03:35;;;;;;;;;;;205.40;2252.80;;;;;;5036577;28;20304;-92
2023/01/13 09:06:01;;;;;;;;;;;205.40;2252.80;;;;;;5036034;28;19912;-91
2023/01/13 09:08:26;;;;;;;;;;;205.40;2252.80;;;;;;5035276;28;19905;-91
2023/01/13 09:10:52;;;;;;;;;;;205.40;2252.80;;;;;;5036730;28;19913;-91
2023/01/13 09:13:19;;;;;;;;;;;205.40;2252.80;;;;;;5053795;28;19905;-79
2023/01/13 09:15:45;;;;;;;;;;;205.40;2252.80;;;;;;5052945;28;19904;-84
2023/01/13 09:18:11;;;;;;;;;;;205.50;2252.80;;;;;;5035097;28;19913;-82
2023/01/13 09:20:37;;;;;;;;;;;205.40;2252.80;;;;;;5031227;28;19905;-85
2023/01/13 09:23:03;;;;;;;;;;;205.40;2252.80;;;;;;5054002;28;19909;-82
2023/01/13 09:25:28;;;;;;;;;;;205.40;2252.80;;;;;;5053762;28;19916;-78
2023/01/13 09:27:55;;;;;;;;;;;205.60;2252.80;;;;;;5053728;28;19904;-87
2023/01/13 09:30:20;;;;;;;;;;;205.60;2252.80;;;;;;5035522;28;19912;-85
2023/01/13 09:32:46;;;;;;;;;;;205.60;2252.80;;;;;;5037148;28;20004;-91
2023/01/13 09:35:11;;;;;;;;;;;205.60;2252.80;;;;;;5053536;28;19909;-87
2023/01/13 09:37:38;;;;;;;;;;;205.40;2252.80;;;;;;5035662;28;19955;-80
2023/01/13 09:40:05;;;;;;;;;;;205.40;2252.80;;;;;;5035717;28;19916;-83
2023/01/13 09:45:41;;;;;;;;;;;205.40;2252.80;;;;;;5052490;28;19951;-80
2023/01/13 09:48:20;;;;;;;;;;;205.60;2252.80;;;;;;5027122;28;19996;-87
2023/01/13 09:50:55;;;;;;;;;;;205.50;2252.80;;;;;;5035595;28;20355;-78
2023/01/13 09:53:36;;;;;;;;;;;205.50;2252.80;;;;;;5053177;28;19923;-79
2023/01/13 09:56:01;;;;;;;;;;;205.40;2252.80;;;;;;5027687;28;19955;-79
2023/01/13 09:58:27;;;;;;;;;;;205.40;2252.80;;;;;;5032681;28;19944;-88
2023/01/13 10:00:59;;;;;;;;;;;205.40;2252.80;;;;;;5040241;28;19940;-84
2023/01/13 10:03:29;;;;;;;;;;;205.40;2252.80;;;;;;5029852;28;19905;-87
2023/01/13 10:05:58;;;;;;;;;;;205.40;2252.80;;;;;;5050992;28;20251;-82
2023/01/13 10:08:28;;;;;;;;;;;205.40;2252.80;;;;;;5056988;28;19909;-84
2023/01/13 10:10:58;;;;;;;;;;;205.40;2252.80;;;;;;5037928;28;19955;-88
2023/01/13 10:13:25;;;;;;;;;;;205.40;2252.80;;;;;;5037799;28;19905;-82
2023/01/13 10:15:55;;;;;;;;;;;205.40;2252.80;;;;;;5026602;28;19931;-88
2023/01/13 10:18:53;;;;;;;;;;;205.50;2252.80;;;;;;5039174;28;19924;-83
2023/01/13 10:21:27;;;;;;;;;;;205.40;2252.80;;;;;;4956186;29;19906;-81
2023/01/13 10:24:19;;;;;;;;;;;205.40;2252.80;;;;;;4942013;29;20342;-89
2023/01/13 10:27:03;;;;;;;;;;;205.40;2252.80;;;;;;4939716;28;19910;-82
2023/01/13 10:29:30;;;;;;;;;;;205.40;2252.80;;;;;;4957333;28;19906;-88
2023/01/13 10:31:57;;;;;;;;;;;205.20;2252.80;;;;;;4941630;29;19906;-83
2023/01/13 10:34:24;;;;;;;;;;;205.40;2252.80;;;;;;4940390;29;19906;-84
2023/01/13 10:37:05;;;;;;;;;;;205.40;2252.80;;;;;;4940611;28;19914;-81
2023/01/13 10:39:42;;;;;;;;;;;205.30;2252.80;;;;;;4956111;28;19918;-81
2023/01/13 10:42:12;;;;;;;;;;;205.40;2252.80;;;;;;4944834;28;19910;-86
2023/01/13 10:44:53;;;;;;;;;;;205.40;2252.80;;;;;;4939173;29;19922;-78
2023/01/13 10:47:24;;;;;;;;;;;205.30;2252.80;;;;;;4940191;29;20018;-79
2023/01/13 10:50:07;;;;;;;;;;;205.30;2252.80;;;;;;4940553;28;20001;-80
2023/01/13 10:52:40;;;;;;;;;;;205.20;2252.80;;;;;;4955938;28;19907;-84
2023/01/13 10:55:37;;;;;;;;;;;205.20;2252.80;;;;;;4943116;29;20001;-83
2023/01/13 10:58:12;;;;;;;;;;;205.20;2252.80;;;;;;4957225;28;19922;-82
2023/01/13 11:00:38;;;;;;;;;;;205.20;2252.80;;;;;;4958591;28;19910;-83
2023/01/13 11:03:11;;;;;;;;;;;205.20;2252.80;;;;;;4974424;28;19906;-78
2023/01/13 11:05:37;;;;;;;;;;;205.20;2252.80;;;;;;4973723;28;19906;-86
2023/01/13 11:08:03;;;;;;;;;;;205.20;2252.80;;;;;;4956875;28;19913;-79
2023/01/13 11:10:31;;;;;;;;;;;205.30;2252.80;;;;;;4958652;28;19933;-83
2023/01/13 11:13:28;;;;;;;;;;;205.20;2252.80;;;;;;4958957;28;20292;-82
2023/01/13 11:16:09;;;;;;;;;;;205.20;2252.80;;;;;;4901692;29;19914;-83
2023/01/13 11:19:10;;;;;;;;;;;205.30;2252.80;;;;;;4902319;29;19970;-81
2023/01/13 11:21:42;;;;;;;;;;;205.30;2252.80;;;;;;4899877;29;19907;-80
2023/01/13 11:24:08;;;;;;;;;;;205.20;2252.80;;;;;;4902642;29;19907;-83
2023/01/13 11:26:40;;;;;;;;;;;205.20;2252.80;;;;;;4902028;29;19907;-86
2023/01/13 11:29:28;;;;;;;;;;;205.10;2252.80;;;;;;4918947;29;19911;-91
2023/01/13 11:31:59;;;;;;;;;;;205.20;2252.80;;;;;;4903141;29;19911;-92
2023/01/13 11:34:24;;;;;;;;;;;205.10;2252.80;;;;;;4919302;29;19945;-83
2023/01/13 11:36:51;;;;;;;;;;;205.10;2252.80;;;;;;4939262;29;20364;-83
2023/01/13 11:39:17;;;;;;;;;;;205.10;2252.80;;;;;;4953852;29;20385;-80
2023/01/13 11:41:44;;;;;;;;;;;205.00;2252.80;;;;;;4939472;29;19922;-83
2023/01/13 11:44:09;;;;;;;;;;;205.10;2252.80;;;;;;4939702;29;19914;-86
2023/01/13 11:46:35;;;;;;;;;;;205.20;2252.80;;;;;;4939739;29;19913;-79
2023/01/13 11:49:01;;;;;;;;;;;205.20;2252.80;;;;;;4939202;29;20018;-83
2023/01/13 11:51:26;;;;;;;;;;;205.20;2252.80;;;;;;4986964;28;19905;-81
2023/01/13 11:54:23;;;;;;;;;;;205.40;2252.80;;;;;;5037069;28;20385;-79
2023/01/13 11:56:54;;;;;;;;;;;205.30;2252.80;;;;;;4957679;28;20396;-81
2023/01/13 11:59:38;;;;;;;;;;;205.10;2252.80;;;;;;4958028;28;19950;-81
2023/01/13 12:02:22;;;;;;;;;;;205.00;2252.80;;;;;;4957792;28;19906;-92
2023/01/13 12:05:02;;;;;;;;;;;204.90;2252.80;;;;;;4957974;28;20696;-90
2023/01/13 12:07:40;;;;;;;;;;;205.00;2252.80;;;;;;4973833;28;19910;-84
2023/01/13 12:10:11;;;;;;;;;;;205.10;2252.80;;;;;;4958927;28;19918;-79
2023/01/13 12:12:55;;;;;;;;;;;205.10;2252.80;;;;;;4973556;28;19980;-84
2023/01/13 12:15:21;;;;;;;;;;;205.10;2252.80;;;;;;4977789;28;20348;-86
2023/01/13 12:17:52;;;;;;;;;;;205.10;2252.80;;;;;;4958110;28;19913;-82
2023/01/13 12:20:32;;;;;;;;;;;205.10;2252.80;;;;;;4957384;28;19945;-82
2023/01/13 12:23:01;;;;;;;;;;;205.10;2252.80;;;;;;4970363;28;19965;-84
2023/01/13 12:25:30;;;;;;;;;;;205.20;2252.80;;;;;;4974318;28;19913;-91
2023/01/13 12:28:17;;;;;;;;;;;205.10;2252.80;;;;;;4958485;28;20000;-81
2023/01/13 12:31:12;;;;;;;;;;;205.20;2252.80;;;;;;4960755;28;19961;-89
2023/01/13 12:33:40;;;;;;;;;;;205.20;2252.80;;;;;;4972845;28;19991;-86
2023/01/13 12:36:06;;;;;;;;;;;205.20;2252.80;;;;;;4977241;28;19982;-88
2023/01/13 12:38:34;;;;;;;;;;;205.20;2252.80;;;;;;4993414;28;19945;-82
2023/01/13 12:41:00;;;;;;;;;;;205.20;2252.80;;;;;;4977436;28;19909;-84
2023/01/13 12:46:21;;;;;;;;;;;205.20;2252.80;;;;;;4997893;28;20319;-91
2023/01/13 12:48:49;;;;;;;;;;;205.40;2252.80;;;;;;4993546;28;19913;-88
2023/01/13 12:51:33;;;;;;;;;;;205.30;2252.80;;;;;;4976094;28;19912;-88
2023/01/13 12:54:02;;;;;;;;;;;205.30;2252.80;;;;;;4993698;28;19913;-89
2023/01/13 12:56:44;;;;;;;;;;;205.40;2252.80;;;;;;4974993;28;20019;-90
2023/01/13 12:59:15;;;;;;;;;;;205.30;2252.80;;;;;;4977142;28;19913;-88
2023/01/13 13:01:40;;;;;;;;;;;205.50;2252.80;;;;;;4980837;28;20444;-94
2023/01/13 13:04:08;;;;;;;;;;;205.70;2252.80;;;;;;4979334;28;19906;-83
2023/01/13 13:06:35;;;;;;;;;;;205.70;2252.80;;;;;;4976863;28;19965;-88
2023/01/13 13:09:06;;;;;;;;;;;205.70;2252.80;;;;;;4990919;28;19913;-90
2023/01/13 13:14:40;;;;;;;;;;;205.70;2252.80;;;;;;5045551;28;20067;-89
2023/01/13 13:17:12;;;;;;;;;;;205.70;2252.80;;;;;;5036162;28;19911;-90
2023/01/13 13:19:37;;;;;;;;;;;205.70;2252.80;;;;;;5053302;28;19928;-87
2023/01/13 13:22:12;;;;;;;;;;;230.40;2252.80;;;;;;5053515;28;19947;-87
2023/01/13 13:24:47;;;;;;;;;;;230.40;2252.80;;;;;;5052159;28;19905;-87
2023/01/13 13:27:16;;;;;;;;;;;230.40;2252.80;;;;;;5033950;28;20404;-86
2023/01/13 13:29:57;;;;;;;;;;;230.40;2252.80;;;;;;5053766;28;20065;-82
2023/01/13 13:32:28;;;;;;;;;;;230.40;2252.80;;;;;;5034863;28;20642;-89
2023/01/13 13:35:12;;;;;;;;;;;230.50;2252.80;;;;;;5057634;28;19927;-83
2023/01/13 13:46:45;;;;;;;;;;;230.50;2252.80;;;;;;5057673;28;20005;-91
2023/01/13 13:49:15;;;;;;;;;;;230.50;2252.80;;;;;;5040369;28;19912;-89
2023/01/13 13:51:45;;;;;;;;;;;230.50;2252.80;;;;;;5039546;28;19911;-90
2023/01/13 13:54:12;;;;;;;;;;;230.50;2252.80;;;;;;5039044;28;19909;-89
2023/01/13 13:56:41;;;;;;;;;;;230.40;2252.80;;;;;;5040899;28;20051;-89
2023/01/13 13:59:11;;;;;;;;;;;230.40;2252.80;;;;;;5059108;28;20050;-80
2023/01/13 14:01:38;;;;;;;;;;;230.40;2252.80;;;;;;5040983;28;19905;-91
2023/01/13 14:04:18;;;;;;;;;;;230.40;2252.80;;;;;;5040121;28;19905;-92
2023/01/13 14:07:01;;;;;;;;;;;230.50;2252.80;;;;;;5052357;28;19911;-90
2023/01/13 14:09:28;;;;;;;;;;;230.60;2252.80;;;;;;5037371;28;19920;-88
2023/01/13 14:11:58;;;;;;;;;;;230.50;2252.80;;;;;;5040243;28;19931;-88
2023/01/13 14:14:24;;;;;;;;;;;230.50;2252.80;;;;;;5057471;28;19959;-84
2023/01/13 14:16:50;;;;;;;;;;;230.60;2252.80;;;;;;5039464;28;19904;-91
2023/01/13 14:19:30;;;;;;;;;;;230.60;2252.80;;;;;;5031621;28;21215;-89
2023/01/13 14:21:57;;;;;;;;;;;230.70;2252.80;;;;;;5036502;28;19950;-91
2023/01/13 14:24:23;;;;;;;;;;;230.70;2252.80;;;;;;5039018;28;20007;-90
2023/01/13 14:26:51;;;;;;;;;;;230.60;2252.80;;;;;;5056797;28;20004;-91
2023/01/13 14:29:19;;;;;;;;;;;230.60;2252.80;;;;;;5057107;28;20003;-91
2023/01/13 14:31:45;;;;;;;;;;;230.60;2252.80;;;;;;5035232;28;19912;-89
2023/01/13 14:34:11;;;;;;;;;;;230.50;2252.80;;;;;;5035811;28;19904;-90
2023/01/13 14:36:37;;;;;;;;;;;230.60;2252.80;;;;;;5035578;28;19905;-88
2023/01/13 14:39:03;;;;;;;;;;;230.60;2252.80;;;;;;5037576;28;19920;-87
2023/01/13 14:41:35;;;;;;;;;;;230.50;2252.80;;;;;;5038429;28;19962;-86